Last 6 Hours

AM-Scott Top 8120'

15 Minute Data | America/Los_Angeles
as of 9/2/26 12:20 AM PDT
Date & Time Temp (°F) RH (%) Dew Pt (°F) Wet Bulb (°F) Wind Dir (°) Wind Spd (mph) Wind Gust (mph) WindChill (°F) Daily Min Temp (°F) Daily Max Temp (°F)
9/2/26 - 0015 37.8 74 30.2 34.3 N | 0 21.0 32.6 28.0 36.9 37.9
9/2/26 - 0000 37.3 79 31.5 34.6 N | 4 20.1 34.4 26.8 36.5 41.1
9/1/26 - 2345 38.0 73 30.3 34.5 N | 351 22.5 39.9 28.7 36.5 41.1
9/1/26 - 2330 38.0 74 30.6 34.6 N | 351 24.8 37.6 26.2 36.5 41.1
9/1/26 - 2315 36.7 89 33.9 35.3 N | 358 23.5 37.5 24.0 36.5 41.1
9/1/26 - 2300 37.4 84 33.1 35.3 N | 358 22.9 37.0 28.0 36.5 41.1
9/1/26 - 2245 37.0 88 33.6 35.4 N | 356 23.1 36.3 24.6 36.5 41.1
9/1/26 - 2230 37.1 87 33.7 35.5 N | 353 22.9 32.2 26.2 36.5 41.1
9/1/26 - 2215 36.7 89 33.8 35.3 N | 354 22.1 33.3 26.6 36.6 41.1
9/1/26 - 2200 37.6 82 32.7 35.3 N | 352 22.3 37.6 29.0 37.0 41.1
9/1/26 - 2145 37.4 89 34.4 36.0 N | 357 21.9 33.4 27.4 37.4 41.1
9/1/26 - 2130 38.0 85 34.0 36.1 NNW | 342 18.4 24.2 28.6 37.8 41.1
9/1/26 - 2115 38.5 85 34.5 36.6 NNW | 332 17.2 25.0 28.8 38.2 41.1
9/1/26 - 2100 38.5 88 35.2 36.9 N | 354 18.2 26.6 29.9 38.5 41.1
9/1/26 - 2045 39.3 83 34.7 37.0 NNW | 341 19.6 33.0 28.6 39.3 41.1
9/1/26 - 2030 40.0 78 33.6 36.9 NNW | 337 19.0 30.6 31.4 39.6 41.1
9/1/26 - 2015 40.7 71 32.1 36.6 NNW | 340 18.4 29.6 32.7 40.2 55.6
9/1/26 - 2000 40.7 76 33.9 37.3 N | 355 18.4 33.4 31.3 40.6 55.6
9/1/26 - 1945 41.0 76 34.1 37.6 NNW | 346 17.4 29.6 33.8 41.0 55.6
9/1/26 - 1930 42.0 68 32.3 37.3 N | 355 18.2 29.8 31.4 41.9 55.6
9/1/26 - 1915 42.8 64 31.3 37.3 N | 358 16.3 25.5 34.3 42.5 55.6
9/1/26 - 1900 44.1 63 32.3 38.3 N | 4 16.4 28.5 36.7 43.6 55.6
9/1/26 - 1845 44.7 65 33.7 39.2 N | 360 18.2 30.4 36.3 44.3 55.6
9/1/26 - 1830 45.6 59 32.1 39.0 N | 350 18.2 29.1 38.9 45.3 55.6
Max 45.6 89 35.2 39.2 - 24.8 39.9 38.9 45.3 55.6
Avg 39.5 78 33.0 36.3 - 20.0 32.0 29.9 - -
Min 36.7 59 30.2 34.3 - 16.3 24.2 24.0 36.5 37.9